Oregon Trader — 9HA3880 — position and weather

sailwx.info

Track history (hours):
 
Tides and Currents Weather Stations Pressure Air Temp Water Temp Dewpoint Dewpoint Depression Visibility Wind Speed Wind Dir Waves Ship Positions

Oregon Trader

Last reported at 2017-Nov-19 01:58 UTC. Time now 2017-Nov-19 02:59 UTC.
Position N 51°50' E 003°24'.

Length 212 m; draft 7.7 m.

Type: Cargo ship. MMSI: 256304000.

Date/timePositionNaut miles runAvg speedWind from/ knotsBaromVisibWave heightAir tempDewpointWater temp
2017-Nov-19 01:58N 51°50' E 003°24'0 0.1
2017-Nov-18 22:51N 51°50' E 003°23'0 0.0
2017-Nov-18 22:30N 51°50' E 003°23'0 0.0
2017-Nov-18 20:27N 51°50' E 003°23'0 0.0
2017-Nov-18 19:57N 51°50' E 003°23'0 0.1
2017-Nov-18 18:18N 51°50' E 003°23'0 0.1
2017-Nov-18 17:57N 51°50' E 003°23'0 0.0
2017-Nov-18 17:24N 51°50' E 003°23'0 0.1
2017-Nov-18 14:39N 51°50' E 003°23'0 0.0
2017-Nov-18 14:26N 51°50' E 003°23'0 0.0
2017-Nov-18 14:00N 51°50' E 003°23'0 0.0
2017-Nov-18 13:30N 51°50' E 003°23'0 0.1
2017-Nov-18 13:00N 51°50' E 003°24'0 0.0
2017-Nov-18 12:30N 51°50' E 003°24'0 0.3
2017-Nov-18 11:56N 51°50' E 003°23'1 3.2
2017-Nov-18 11:30N 51°49' E 003°25'5 9.2
2017-Nov-18 10:59N 51°47' E 003°17'510.4
2017-Nov-18 10:30N 51°42' E 003°15'4 7.2
2017-Nov-18 10:00N 51°39' E 003°12'813.4
2017-Nov-18 09:22N 51°32' E 003°07'614.4
2017-Nov-18 08:59N 51°28' E 003°01'510.5
2017-Nov-18 08:31N 51°24' E 003°06'815.5
2017-Nov-18 08:01N 51°25' E 003°19'815.5
2017-Nov-18 07:30N 51°25' E 003°31'4 8.4
2017-Nov-18 07:00N 51°26' E 003°38'613.0
2017-Nov-18 06:30N 51°22' E 003°45'815.3
2017-Nov-18 06:01N 51°24' E 003°57'4 8.7
2017-Nov-18 05:31N 51°22' E 004°04'612.0
2017-Nov-18 05:01N 51°22' E 004°13'2 3.7
2017-Nov-18 04:30N 51°21' E 004°16'0 0.0
2017-Nov-18 04:00N 51°21' E 004°16'0 0.0
2017-Nov-18 03:31N 51°21' E 004°16'0 0.0
2017-Nov-18 02:59N 51°21' E 004°16'0 0.0
2017-Nov-18 02:30N 51°21' E 004°16'0 0.0
2017-Nov-18 01:58N 51°21' E 004°16'0 0.0
2017-Nov-18 01:31N 51°21' E 004°16'0 0.0
2017-Nov-18 01:00N 51°21' E 004°16'0 0.0
2017-Nov-18 00:30N 51°21' E 004°16'0 0.0
2017-Nov-18 00:00N 51°21' E 004°16'0 0.0
2017-Nov-17 23:31N 51°21' E 004°16'0 0.0
2017-Nov-17 23:00N 51°21' E 004°16'0 0.0
2017-Nov-17 22:31N 51°21' E 004°16'0 0.0
2017-Nov-17 21:59N 51°21' E 004°16'0 0.0
2017-Nov-17 21:30N 51°21' E 004°16'0 0.0
2017-Nov-17 21:00N 51°21' E 004°16'0 0.0
2017-Nov-17 20:30N 51°21' E 004°16'0 0.0
2017-Nov-17 20:01N 51°21' E 004°16'1 1.5
2017-Nov-17 19:31N 51°21' E 004°17'0 0.0
2017-Nov-17 18:58N 51°21' E 004°17'0 0.0
2017-Nov-17 18:30N 51°21' E 004°17'2 3.9
2017-Nov-17 18:00N 51°19' E 004°19'2 4.7
2017-Nov-17 17:30N 51°17' E 004°21'2 3.2
2017-Nov-17 17:00N 51°16' E 004°22'0 0.0
2017-Nov-17 16:30N 51°16' E 004°22'0 0.0
2017-Nov-17 16:00N 51°16' E 004°22'0 0.0
2017-Nov-17 15:30N 51°16' E 004°22'0 0.0
2017-Nov-17 15:00N 51°16' E 004°22'0 0.0
2017-Nov-17 14:30N 51°16' E 004°22'0 0.0
2017-Nov-17 14:00N 51°16' E 004°22'0 0.0
2017-Nov-17 13:30N 51°16' E 004°22'0 0.0
2017-Nov-17 13:00N 51°16' E 004°22'0 0.0
2017-Nov-17 12:30N 51°16' E 004°22'0 0.0
2017-Nov-17 12:00N 51°16' E 004°22'0 0.0
2017-Nov-17 11:30N 51°16' E 004°22'0 0.0
2017-Nov-17 11:00N 51°16' E 004°22'0 0.0
2017-Nov-17 10:30N 51°16' E 004°22'0 0.0
2017-Nov-17 10:00N 51°16' E 004°22'0 0.0
2017-Nov-17 09:30N 51°16' E 004°22'0 0.0
2017-Nov-17 09:00N 51°16' E 004°22'0 0.0
2017-Nov-17 08:30N 51°16' E 004°22'0 0.0
2017-Nov-17 08:00N 51°16' E 004°22'0 0.0
2017-Nov-17 07:30N 51°16' E 004°22'0 0.0
2017-Nov-17 07:00N 51°16' E 004°22'0 0.0
2017-Nov-17 06:30N 51°16' E 004°22'0 0.0
2017-Nov-17 06:00N 51°16' E 004°22'0 0.0
2017-Nov-17 05:30N 51°16' E 004°22'0 0.0
2017-Nov-17 05:00N 51°16' E 004°22'0 0.0
2017-Nov-17 04:30N 51°16' E 004°22'0 0.0
2017-Nov-17 04:00N 51°16' E 004°22'0 0.0
2017-Nov-17 03:30N 51°16' E 004°22'0 0.0
2017-Nov-17 03:00N 51°16' E 004°22'0 0.0
2017-Nov-17 02:30N 51°16' E 004°22'0 0.0
2017-Nov-17 02:00N 51°16' E 004°22'0 0.0
2017-Nov-17 01:30N 51°16' E 004°22'0 0.0
2017-Nov-17 01:00N 51°16' E 004°22'0 0.0
2017-Nov-17 00:30N 51°16' E 004°22'0 0.0
2017-Nov-17 00:00N 51°16' E 004°22'0 0.0
2017-Nov-16 23:30N 51°16' E 004°22'0 0.0
2017-Nov-16 23:00N 51°16' E 004°22'0 0.0
2017-Nov-16 22:30N 51°16' E 004°22'0 0.0
2017-Nov-16 22:00N 51°16' E 004°22'0 0.0
2017-Nov-16 21:30N 51°16' E 004°22'0 0.0
2017-Nov-16 21:00N 51°16' E 004°22'0 0.0
2017-Nov-16 20:30N 51°16' E 004°22'0 0.0
2017-Nov-16 20:00N 51°16' E 004°22'0 0.0
2017-Nov-16 19:30N 51°16' E 004°22'0 0.0
2017-Nov-16 19:00N 51°16' E 004°22'0 0.0
2017-Nov-16 18:30N 51°16' E 004°22'0 0.0
2017-Nov-16 18:00N 51°16' E 004°22'0 0.0
2017-Nov-16 17:30N 51°16' E 004°22'0 0.0
2017-Nov-16 17:00N 51°16' E 004°22'0 0.0
2017-Nov-16 16:30N 51°16' E 004°22'0 0.0
2017-Nov-16 16:00N 51°16' E 004°22'0 0.0
2017-Nov-16 15:30N 51°16' E 004°22'0 0.0
2017-Nov-16 15:00N 51°16' E 004°22'0 0.0
2017-Nov-16 14:30N 51°16' E 004°22'0 0.0
2017-Nov-16 14:00N 51°16' E 004°22'0 0.0
2017-Nov-16 13:30N 51°16' E 004°22'0 0.0
2017-Nov-16 13:00N 51°16' E 004°22'0 0.0
2017-Nov-16 12:27N 51°16' E 004°22'0 0.0
2017-Nov-16 12:00N 51°16' E 004°22'0 0.0
2017-Nov-16 11:30N 51°16' E 004°22'0 0.0
2017-Nov-16 11:00N 51°16' E 004°22'0 0.0
2017-Nov-16 10:30N 51°16' E 004°22'0 0.0
2017-Nov-16 10:00N 51°16' E 004°22'0 0.0
2017-Nov-16 09:30N 51°16' E 004°22'0 0.0
2017-Nov-16 09:00N 51°16' E 004°22'0 0.0
2017-Nov-16 08:30N 51°16' E 004°22'0 0.0
2017-Nov-16 08:00N 51°16' E 004°22'0 0.0
2017-Nov-16 07:30N 51°16' E 004°22'0 0.0
2017-Nov-16 07:00N 51°16' E 004°22'0 0.0
2017-Nov-16 06:27N 51°16' E 004°22'0 0.0
2017-Nov-16 06:00N 51°16' E 004°22'0 0.0
2017-Nov-16 05:30N 51°16' E 004°22'0 0.0
2017-Nov-16 05:00N 51°16' E 004°22'0 0.0
2017-Nov-16 04:30N 51°16' E 004°22'0 0.0
2017-Nov-16 04:00N 51°16' E 004°22'0 0.0
2017-Nov-16 03:30N 51°16' E 004°22'0 0.0
2017-Nov-16 03:00N 51°16' E 004°22'0 0.0
2017-Nov-16 02:30N 51°16' E 004°22'0 0.0
2017-Nov-16 01:57N 51°16' E 004°22'0 0.0
2017-Nov-16 01:30N 51°16' E 004°22'0 0.0
2017-Nov-16 01:00N 51°16' E 004°22'0 0.0
2017-Nov-16 00:30N 51°16' E 004°22'0 0.0
2017-Nov-16 00:00N 51°16' E 004°22'0 0.0
2017-Nov-15 23:30N 51°16' E 004°22'0 0.0
2017-Nov-15 23:00N 51°16' E 004°22'0 0.0
2017-Nov-15 22:30N 51°16' E 004°22'0 0.0
2017-Nov-15 22:00N 51°16' E 004°22'0 0.0
2017-Nov-15 21:27N 51°16' E 004°22'0 0.0
2017-Nov-15 21:00N 51°16' E 004°22'0 0.0
2017-Nov-15 20:30N 51°16' E 004°22'0 0.0
2017-Nov-15 20:00N 51°16' E 004°22'0 0.0
2017-Nov-15 19:30N 51°16' E 004°22'0 0.0
2017-Nov-15 19:00N 51°16' E 004°22'0 0.0
2017-Nov-15 18:30N 51°16' E 004°22'0 0.0
2017-Nov-15 18:00N 51°16' E 004°22'0 0.0
2017-Nov-15 17:30N 51°16' E 004°22'0 0.0
2017-Nov-15 17:00N 51°16' E 004°22'0 0.0
2017-Nov-15 16:30N 51°16' E 004°22'0 0.0
2017-Nov-15 16:00N 51°16' E 004°22'0 0.0
2017-Nov-15 15:30N 51°16' E 004°22'0 0.0
2017-Nov-15 15:00N 51°16' E 004°22'0 0.0
2017-Nov-15 14:30N 51°16' E 004°22'0 0.0
2017-Nov-15 14:00N 51°16' E 004°22'0 0.0
2017-Nov-15 13:30N 51°16' E 004°22'0 0.0
2017-Nov-15 13:00N 51°16' E 004°22'0 0.0
2017-Nov-15 12:30N 51°16' E 004°22'0 0.0
2017-Nov-15 12:00N 51°16' E 004°22'0 0.0
2017-Nov-15 11:30N 51°16' E 004°22'0 0.0
2017-Nov-15 11:00N 51°16' E 004°22'0 0.0
2017-Nov-15 10:30N 51°16' E 004°22'0 0.0
2017-Nov-15 10:00N 51°16' E 004°22'0 0.0
2017-Nov-15 09:30N 51°16' E 004°22'0 0.0
2017-Nov-15 09:00N 51°16' E 004°22'0 0.0
2017-Nov-15 08:30N 51°16' E 004°22'0 0.0
2017-Nov-15 08:00N 51°16' E 004°22'0 0.0
2017-Nov-15 07:30N 51°16' E 004°22'0 0.0
2017-Nov-15 07:00N 51°16' E 004°22'0 0.0
2017-Nov-15 06:30N 51°16' E 004°22'0 0.0
2017-Nov-15 06:00N 51°16' E 004°22'0 0.0
2017-Nov-15 05:30N 51°16' E 004°22'0 0.0
2017-Nov-15 05:00N 51°16' E 004°22'0 0.0
2017-Nov-15 04:30N 51°16' E 004°22'0 0.0
2017-Nov-15 04:00N 51°16' E 004°22'0 0.0
2017-Nov-15 03:30N 51°16' E 004°22'0 0.0
2017-Nov-15 03:00N 51°16' E 004°22'0 0.0
2017-Nov-15 02:30N 51°16' E 004°22'0 0.0
2017-Nov-15 02:00N 51°16' E 004°22'0 0.0
2017-Nov-15 01:30N 51°16' E 004°22'0 0.0
2017-Nov-15 01:00N 51°16' E 004°22'0 0.0
2017-Nov-15 00:30N 51°16' E 004°22'0 0.0
2017-Nov-14 23:57N 51°16' E 004°22'0 0.0
2017-Nov-14 23:30N 51°16' E 004°22'0 0.0
2017-Nov-14 22:57N 51°16' E 004°22'0 0.0
2017-Nov-14 22:30N 51°16' E 004°22'0 0.0
2017-Nov-14 22:00N 51°16' E 004°22'0 0.0
2017-Nov-14 21:30N 51°16' E 004°22'0 0.0
2017-Nov-14 21:00N 51°16' E 004°22'0 0.0
2017-Nov-14 20:30N 51°16' E 004°22'0 0.0
2017-Nov-14 20:00N 51°16' E 004°22'0 0.0
2017-Nov-14 19:30N 51°16' E 004°22'0 0.0
2017-Nov-14 19:00N 51°16' E 004°22'0 0.0
2017-Nov-14 18:30N 51°16' E 004°22'0 0.0
2017-Nov-14 18:00N 51°16' E 004°22'0 0.0
2017-Nov-14 17:30N 51°16' E 004°22'0 0.0
2017-Nov-14 17:00N 51°16' E 004°22'0 0.0
2017-Nov-14 16:30N 51°16' E 004°22'0 0.0
2017-Nov-14 16:00N 51°16' E 004°22'0 0.0
2017-Nov-14 15:30N 51°16' E 004°22'0 0.0
2017-Nov-14 15:00N 51°16' E 004°22'0 0.0
2017-Nov-14 14:30N 51°16' E 004°22'0 0.0
2017-Nov-14 14:00N 51°16' E 004°22'0 0.0
2017-Nov-14 13:27N 51°16' E 004°22'0 0.0
2017-Nov-14 13:00N 51°16' E 004°22'0 0.0
2017-Nov-14 12:30N 51°16' E 004°22'0 0.0
2017-Nov-14 12:00N 51°16' E 004°22'0 0.0
2017-Nov-14 11:30N 51°16' E 004°22'0 0.0
2017-Nov-14 11:00N 51°16' E 004°22'0 0.0
2017-Nov-14 10:30N 51°16' E 004°22'0 0.0
2017-Nov-14 10:00N 51°16' E 004°22'0 0.0
2017-Nov-14 09:30N 51°16' E 004°22'0 0.0
2017-Nov-14 09:00N 51°16' E 004°22'1 1.4
2017-Nov-14 08:30N 51°16' E 004°21'2 4.5
2017-Nov-14 08:00N 51°18' E 004°20'3 6.4
2017-Nov-14 07:30N 51°21' E 004°18'0 0.9
2017-Nov-14 07:00N 51°21' E 004°17'0 0.0
2017-Nov-14 06:29N 51°21' E 004°17'0 0.0
2017-Nov-14 06:01N 51°21' E 004°17'1 1.1
2017-Nov-14 05:31N 51°21' E 004°16'3 5.6
2017-Nov-14 05:00N 51°18' E 004°16'1 1.5
2017-Nov-14 04:30N 51°17' E 004°16'0 0.0
2017-Nov-14 03:57N 51°17' E 004°16'0 0.0
2017-Nov-14 03:30N 51°17' E 004°16'0 0.0
2017-Nov-14 03:00N 51°17' E 004°16'0 0.0
2017-Nov-14 02:30N 51°17' E 004°16'0 0.0
2017-Nov-14 01:57N 51°17' E 004°16'0 0.0
2017-Nov-14 01:30N 51°17' E 004°16'0 0.0
2017-Nov-14 01:00N 51°17' E 004°16'0 0.0
2017-Nov-14 00:30N 51°17' E 004°16'0 0.0
2017-Nov-14 00:00N 51°17' E 004°16'0 0.0
2017-Nov-13 23:30N 51°17' E 004°16'0 0.0
2017-Nov-13 23:00N 51°17' E 004°16'0 0.0
2017-Nov-13 22:30N 51°17' E 004°16'0 0.0
2017-Nov-13 22:00N 51°17' E 004°16'75 3.8
2017-Nov-13 02:00N 51°17' E 002°16'3 5.9
2017-Nov-13 01:30N 51°16' E 002°11'4 7.9
2017-Nov-13 01:00N 51°18' E 002°06'510.1
2017-Nov-13 00:30N 51°22' E 002°01'3 6.2
2017-Nov-13 00:00N 51°25' E 002°01'4 7.3
2017-Nov-12 23:30N 51°23' E 002°06'4 7.2
2017-Nov-12 23:00N 51°21' E 002°11'3 7.0
2017-Nov-12 22:30N 51°20' E 002°17'4 7.9
2017-Nov-12 22:00N 51°21' E 002°23'2 3.6
2017-Nov-12 21:30N 51°19' E 002°22'3 6.0
2017-Nov-12 21:00N 51°18' E 002°18'3 6.4
2017-Nov-12 20:30N 51°16' E 002°14'4 8.0
2017-Nov-12 20:00N 51°14' E 002°08'4 8.3
2017-Nov-12 19:30N 51°11' E 002°03'5 9.5
2017-Nov-12 19:00N 51°09' E 001°56'510.7
2017-Nov-12 18:30N 51°07' E 001°49'510.0
2017-Nov-12 18:00N 51°03' E 001°43'510.0
2017-Nov-12 17:31N 50°60' E 001°37'5 9.2
2017-Nov-12 17:00N 50°56' E 001°32'4 8.4
2017-Nov-12 16:30N 50°53' E 001°28'4 7.7
2017-Nov-12 16:00N 50°49' E 001°27'6 7.6
2017-Nov-12 15:13N 50°43' E 001°24'2 7.8
2017-Nov-12 14:54N 50°41' E 001°23'5 8.3
2017-Nov-12 14:18N 50°38' E 001°17'3 8.5
2017-Nov-12 13:56N 50°36' E 001°13'5 8.8
2017-Nov-12 13:20N 50°32' E 001°07'3 9.5
2017-Nov-12 12:59N 50°30' E 001°03'4 9.5
2017-Nov-12 12:30N 50°28' E 000°57'5 9.7
2017-Nov-12 12:00N 50°27' E 000°49'6 9.7
2017-Nov-12 11:24N 50°25' E 000°40'4 9.6
2017-Nov-12 11:00N 50°24' E 000°35'5 9.5
2017-Nov-12 10:29N 50°23' E 000°27'4 9.4
2017-Nov-12 10:00N 50°21' E 000°20'5 9.3
2017-Nov-12 09:30N 50°20' E 000°13'5 9.4
2017-Nov-12 09:00N 50°19' E 000°06'5 9.3
2017-Nov-12 08:30N 50°17' W 000°01'5 9.5
2017-Nov-12 08:00N 50°17' W 000°08'510.9
2017-Nov-12 07:30N 50°16' W 000°17'2211.6
2017-Nov-12 05:34N 50°11' W 000°51'111.9
2017-Nov-12 05:30N 50°11' W 000°52'612.5
2017-Nov-12 05:00N 50°09' W 001°01'713.3
2017-Nov-12 04:30N 50°07' W 001°11'714.2
2017-Nov-12 04:00N 50°05' W 001°22'814.7
2017-Nov-12 03:27N 50°03' W 001°34'715.0
2017-Nov-12 03:00N 50°01' W 001°44'815.4
2017-Nov-12 02:30N 49°59' W 001°56'815.6
2017-Nov-12 01:58N 49°57' W 002°08'1315.0
2017-Nov-12 01:05N 49°53' W 002°28'214.6
2017-Nov-12 00:59N 49°53' W 002°30'714.5
2017-Nov-12 00:30N 49°51' W 002°40'714.2
2017-Nov-12 00:00N 49°49' W 002°51'713.9
2017-Nov-11 23:31N 49°46' W 003°01'713.7
2017-Nov-11 23:00N 49°43' W 003°10'11112.3
2017-Nov-11 13:56N 48°46' W 005°37'2712.5
2017-Nov-11 11:46N 48°22' W 005°56'4813.2
2017-Nov-11 08:10N 47°40' W 006°29'414.2
2017-Nov-11 07:55N 47°37' W 006°31'614.1
2017-Nov-11 07:30N 47°32' W 006°36'51214.3
2017-Nov-09 19:46N 39°20' W 009°51'312.7
2017-Nov-09 19:30N 39°16' W 009°51'612.9
2017-Nov-09 19:00N 39°10' W 009°51'712.5
2017-Nov-09 18:28N 39°03' W 009°51'612.5
2017-Nov-09 18:00N 38°57' W 009°51'612.5
2017-Nov-09 17:30N 38°51' W 009°51'612.7
2017-Nov-09 17:00N 38°45' W 009°51'612.6
2017-Nov-09 16:30N 38°39' W 009°50'612.2
2017-Nov-09 16:00N 38°33' W 009°49'612.0
2017-Nov-09 15:30N 38°27' W 009°47'612.0
2017-Nov-09 15:00N 38°21' W 009°44'712.0
2017-Nov-09 14:27N 38°15' W 009°42'  
Track history (hours):
 
Tides and Currents Weather Stations Pressure Air Temp Water Temp Dewpoint Dewpoint Depression Visibility Wind Speed Wind Dir Waves Ship Positions

Oregon Trader

Last reported at 2017-Nov-19 01:58 UTC. Time now 2017-Nov-19 02:59 UTC.
Position N 51°50' E 003°24'.

Length 212 m; draft 7.7 m.

Type: Cargo ship. MMSI: 256304000.

Date/timePositionNaut miles runAvg speedWind from/ knotsBaromVisibWave heightAir tempDewpointWater temp
2017-Nov-19 01:58N 51°50' E 003°24'0 0.1
2017-Nov-18 22:51N 51°50' E 003°23'0 0.0
2017-Nov-18 22:30N 51°50' E 003°23'0 0.0
2017-Nov-18 20:27N 51°50' E 003°23'0 0.0
2017-Nov-18 19:57N 51°50' E 003°23'0 0.1
2017-Nov-18 18:18N 51°50' E 003°23'0 0.1
2017-Nov-18 17:57N 51°50' E 003°23'0 0.0
2017-Nov-18 17:24N 51°50' E 003°23'0 0.1
2017-Nov-18 14:39N 51°50' E 003°23'0 0.0
2017-Nov-18 14:26N 51°50' E 003°23'0 0.0
2017-Nov-18 14:00N 51°50' E 003°23'0 0.0
2017-Nov-18 13:30N 51°50' E 003°23'0 0.1
2017-Nov-18 13:00N 51°50' E 003°24'0 0.0
2017-Nov-18 12:30N 51°50' E 003°24'0 0.3
2017-Nov-18 11:56N 51°50' E 003°23'1 3.2
2017-Nov-18 11:30N 51°49' E 003°25'5 9.2
2017-Nov-18 10:59N 51°47' E 003°17'510.4
2017-Nov-18 10:30N 51°42' E 003°15'4 7.2
2017-Nov-18 10:00N 51°39' E 003°12'813.4
2017-Nov-18 09:22N 51°32' E 003°07'614.4
2017-Nov-18 08:59N 51°28' E 003°01'510.5
2017-Nov-18 08:31N 51°24' E 003°06'815.5
2017-Nov-18 08:01N 51°25' E 003°19'815.5
2017-Nov-18 07:30N 51°25' E 003°31'4 8.4
2017-Nov-18 07:00N 51°26' E 003°38'613.0
2017-Nov-18 06:30N 51°22' E 003°45'815.3
2017-Nov-18 06:01N 51°24' E 003°57'4 8.7
2017-Nov-18 05:31N 51°22' E 004°04'612.0
2017-Nov-18 05:01N 51°22' E 004°13'2 3.7
2017-Nov-18 04:30N 51°21' E 004°16'0 0.0
2017-Nov-18 04:00N 51°21' E 004°16'0 0.0
2017-Nov-18 03:31N 51°21' E 004°16'0 0.0
2017-Nov-18 02:59N 51°21' E 004°16'0 0.0
2017-Nov-18 02:30N 51°21' E 004°16'0 0.0
2017-Nov-18 01:58N 51°21' E 004°16'0 0.0
2017-Nov-18 01:31N 51°21' E 004°16'0 0.0
2017-Nov-18 01:00N 51°21' E 004°16'0 0.0
2017-Nov-18 00:30N 51°21' E 004°16'0 0.0
2017-Nov-18 00:00N 51°21' E 004°16'0 0.0
2017-Nov-17 23:31N 51°21' E 004°16'0 0.0
2017-Nov-17 23:00N 51°21' E 004°16'0 0.0
2017-Nov-17 22:31N 51°21' E 004°16'0 0.0
2017-Nov-17 21:59N 51°21' E 004°16'0 0.0
2017-Nov-17 21:30N 51°21' E 004°16'0 0.0
2017-Nov-17 21:00N 51°21' E 004°16'0 0.0
2017-Nov-17 20:30N 51°21' E 004°16'0 0.0
2017-Nov-17 20:01N 51°21' E 004°16'1 1.5
2017-Nov-17 19:31N 51°21' E 004°17'0 0.0
2017-Nov-17 18:58N 51°21' E 004°17'0 0.0
2017-Nov-17 18:30N 51°21' E 004°17'2 3.9
2017-Nov-17 18:00N 51°19' E 004°19'2 4.7
2017-Nov-17 17:30N 51°17' E 004°21'2 3.2
2017-Nov-17 17:00N 51°16' E 004°22'0 0.0
2017-Nov-17 16:30N 51°16' E 004°22'0 0.0
2017-Nov-17 16:00N 51°16' E 004°22'0 0.0
2017-Nov-17 15:30N 51°16' E 004°22'0 0.0
2017-Nov-17 15:00N 51°16' E 004°22'0 0.0
2017-Nov-17 14:30N 51°16' E 004°22'0 0.0
2017-Nov-17 14:00N 51°16' E 004°22'0 0.0
2017-Nov-17 13:30N 51°16' E 004°22'0 0.0
2017-Nov-17 13:00N 51°16' E 004°22'0 0.0
2017-Nov-17 12:30N 51°16' E 004°22'0 0.0
2017-Nov-17 12:00N 51°16' E 004°22'0 0.0
2017-Nov-17 11:30N 51°16' E 004°22'0 0.0
2017-Nov-17 11:00N 51°16' E 004°22'0 0.0
2017-Nov-17 10:30N 51°16' E 004°22'0 0.0
2017-Nov-17 10:00N 51°16' E 004°22'0 0.0
2017-Nov-17 09:30N 51°16' E 004°22'0 0.0
2017-Nov-17 09:00N 51°16' E 004°22'0 0.0
2017-Nov-17 08:30N 51°16' E 004°22'0 0.0
2017-Nov-17 08:00N 51°16' E 004°22'0 0.0
2017-Nov-17 07:30N 51°16' E 004°22'0 0.0
2017-Nov-17 07:00N 51°16' E 004°22'0 0.0
2017-Nov-17 06:30N 51°16' E 004°22'0 0.0
2017-Nov-17 06:00N 51°16' E 004°22'0 0.0
2017-Nov-17 05:30N 51°16' E 004°22'0 0.0
2017-Nov-17 05:00N 51°16' E 004°22'0 0.0
2017-Nov-17 04:30N 51°16' E 004°22'0 0.0
2017-Nov-17 04:00N 51°16' E 004°22'0 0.0
2017-Nov-17 03:30N 51°16' E 004°22'0 0.0
2017-Nov-17 03:00N 51°16' E 004°22'0 0.0
2017-Nov-17 02:30N 51°16' E 004°22'0 0.0
2017-Nov-17 02:00N 51°16' E 004°22'0 0.0
2017-Nov-17 01:30N 51°16' E 004°22'0 0.0
2017-Nov-17 01:00N 51°16' E 004°22'0 0.0
2017-Nov-17 00:30N 51°16' E 004°22'0 0.0
2017-Nov-17 00:00N 51°16' E 004°22'0 0.0
2017-Nov-16 23:30N 51°16' E 004°22'0 0.0
2017-Nov-16 23:00N 51°16' E 004°22'0 0.0
2017-Nov-16 22:30N 51°16' E 004°22'0 0.0
2017-Nov-16 22:00N 51°16' E 004°22'0 0.0
2017-Nov-16 21:30N 51°16' E 004°22'0 0.0
2017-Nov-16 21:00N 51°16' E 004°22'0 0.0
2017-Nov-16 20:30N 51°16' E 004°22'0 0.0
2017-Nov-16 20:00N 51°16' E 004°22'0 0.0
2017-Nov-16 19:30N 51°16' E 004°22'0 0.0
2017-Nov-16 19:00N 51°16' E 004°22'0 0.0
2017-Nov-16 18:30N 51°16' E 004°22'0 0.0
2017-Nov-16 18:00N 51°16' E 004°22'0 0.0
2017-Nov-16 17:30N 51°16' E 004°22'0 0.0
2017-Nov-16 17:00N 51°16' E 004°22'0 0.0
2017-Nov-16 16:30N 51°16' E 004°22'0 0.0
2017-Nov-16 16:00N 51°16' E 004°22'0 0.0
2017-Nov-16 15:30N 51°16' E 004°22'0 0.0
2017-Nov-16 15:00N 51°16' E 004°22'0 0.0
2017-Nov-16 14:30N 51°16' E 004°22'0 0.0
2017-Nov-16 14:00N 51°16' E 004°22'0 0.0
2017-Nov-16 13:30N 51°16' E 004°22'0 0.0
2017-Nov-16 13:00N 51°16' E 004°22'0 0.0
2017-Nov-16 12:27N 51°16' E 004°22'0 0.0
2017-Nov-16 12:00N 51°16' E 004°22'0 0.0
2017-Nov-16 11:30N 51°16' E 004°22'0 0.0
2017-Nov-16 11:00N 51°16' E 004°22'0 0.0
2017-Nov-16 10:30N 51°16' E 004°22'0 0.0
2017-Nov-16 10:00N 51°16' E 004°22'0 0.0
2017-Nov-16 09:30N 51°16' E 004°22'0 0.0
2017-Nov-16 09:00N 51°16' E 004°22'0 0.0
2017-Nov-16 08:30N 51°16' E 004°22'0 0.0
2017-Nov-16 08:00N 51°16' E 004°22'0 0.0
2017-Nov-16 07:30N 51°16' E 004°22'0 0.0
2017-Nov-16 07:00N 51°16' E 004°22'0 0.0
2017-Nov-16 06:27N 51°16' E 004°22'0 0.0
2017-Nov-16 06:00N 51°16' E 004°22'0 0.0
2017-Nov-16 05:30N 51°16' E 004°22'0 0.0
2017-Nov-16 05:00N 51°16' E 004°22'0 0.0
2017-Nov-16 04:30N 51°16' E 004°22'0 0.0
2017-Nov-16 04:00N 51°16' E 004°22'0 0.0
2017-Nov-16 03:30N 51°16' E 004°22'0 0.0
2017-Nov-16 03:00N 51°16' E 004°22'0 0.0
2017-Nov-16 02:30N 51°16' E 004°22'0 0.0
2017-Nov-16 01:57N 51°16' E 004°22'0 0.0
2017-Nov-16 01:30N 51°16' E 004°22'0 0.0
2017-Nov-16 01:00N 51°16' E 004°22'0 0.0
2017-Nov-16 00:30N 51°16' E 004°22'0 0.0
2017-Nov-16 00:00N 51°16' E 004°22'0 0.0
2017-Nov-15 23:30N 51°16' E 004°22'0 0.0
2017-Nov-15 23:00N 51°16' E 004°22'0 0.0
2017-Nov-15 22:30N 51°16' E 004°22'0 0.0
2017-Nov-15 22:00N 51°16' E 004°22'0 0.0
2017-Nov-15 21:27N 51°16' E 004°22'0 0.0
2017-Nov-15 21:00N 51°16' E 004°22'0 0.0
2017-Nov-15 20:30N 51°16' E 004°22'0 0.0
2017-Nov-15 20:00N 51°16' E 004°22'0 0.0
2017-Nov-15 19:30N 51°16' E 004°22'0 0.0
2017-Nov-15 19:00N 51°16' E 004°22'0 0.0
2017-Nov-15 18:30N 51°16' E 004°22'0 0.0
2017-Nov-15 18:00N 51°16' E 004°22'0 0.0
2017-Nov-15 17:30N 51°16' E 004°22'0 0.0
2017-Nov-15 17:00N 51°16' E 004°22'0 0.0
2017-Nov-15 16:30N 51°16' E 004°22'0 0.0
2017-Nov-15 16:00N 51°16' E 004°22'0 0.0
2017-Nov-15 15:30N 51°16' E 004°22'0 0.0
2017-Nov-15 15:00N 51°16' E 004°22'0 0.0
2017-Nov-15 14:30N 51°16' E 004°22'0 0.0
2017-Nov-15 14:00N 51°16' E 004°22'0 0.0
2017-Nov-15 13:30N 51°16' E 004°22'0 0.0
2017-Nov-15 13:00N 51°16' E 004°22'0 0.0
2017-Nov-15 12:30N 51°16' E 004°22'0 0.0
2017-Nov-15 12:00N 51°16' E 004°22'0 0.0
2017-Nov-15 11:30N 51°16' E 004°22'0 0.0
2017-Nov-15 11:00N 51°16' E 004°22'0 0.0
2017-Nov-15 10:30N 51°16' E 004°22'0 0.0
2017-Nov-15 10:00N 51°16' E 004°22'0 0.0
2017-Nov-15 09:30N 51°16' E 004°22'0 0.0
2017-Nov-15 09:00N 51°16' E 004°22'0 0.0
2017-Nov-15 08:30N 51°16' E 004°22'0 0.0
2017-Nov-15 08:00N 51°16' E 004°22'0 0.0
2017-Nov-15 07:30N 51°16' E 004°22'0 0.0
2017-Nov-15 07:00N 51°16' E 004°22'0 0.0
2017-Nov-15 06:30N 51°16' E 004°22'0 0.0
2017-Nov-15 06:00N 51°16' E 004°22'0 0.0
2017-Nov-15 05:30N 51°16' E 004°22'0 0.0
2017-Nov-15 05:00N 51°16' E 004°22'0 0.0
2017-Nov-15 04:30N 51°16' E 004°22'0 0.0
2017-Nov-15 04:00N 51°16' E 004°22'0 0.0
2017-Nov-15 03:30N 51°16' E 004°22'0 0.0
2017-Nov-15 03:00N 51°16' E 004°22'0 0.0
2017-Nov-15 02:30N 51°16' E 004°22'0 0.0
2017-Nov-15 02:00N 51°16' E 004°22'0 0.0
2017-Nov-15 01:30N 51°16' E 004°22'0 0.0
2017-Nov-15 01:00N 51°16' E 004°22'0 0.0
2017-Nov-15 00:30N 51°16' E 004°22'0 0.0
2017-Nov-14 23:57N 51°16' E 004°22'0 0.0
2017-Nov-14 23:30N 51°16' E 004°22'0 0.0
2017-Nov-14 22:57N 51°16' E 004°22'0 0.0
2017-Nov-14 22:30N 51°16' E 004°22'0 0.0
2017-Nov-14 22:00N 51°16' E 004°22'0 0.0
2017-Nov-14 21:30N 51°16' E 004°22'0 0.0
2017-Nov-14 21:00N 51°16' E 004°22'0 0.0
2017-Nov-14 20:30N 51°16' E 004°22'0 0.0
2017-Nov-14 20:00N 51°16' E 004°22'0 0.0
2017-Nov-14 19:30N 51°16' E 004°22'0 0.0
2017-Nov-14 19:00N 51°16' E 004°22'0 0.0
2017-Nov-14 18:30N 51°16' E 004°22'0 0.0
2017-Nov-14 18:00N 51°16' E 004°22'0 0.0
2017-Nov-14 17:30N 51°16' E 004°22'0 0.0
2017-Nov-14 17:00N 51°16' E 004°22'0 0.0
2017-Nov-14 16:30N 51°16' E 004°22'0 0.0
2017-Nov-14 16:00N 51°16' E 004°22'0 0.0
2017-Nov-14 15:30N 51°16' E 004°22'0 0.0
2017-Nov-14 15:00N 51°16' E 004°22'0 0.0
2017-Nov-14 14:30N 51°16' E 004°22'0 0.0
2017-Nov-14 14:00N 51°16' E 004°22'0 0.0
2017-Nov-14 13:27N 51°16' E 004°22'0 0.0
2017-Nov-14 13:00N 51°16' E 004°22'0 0.0
2017-Nov-14 12:30N 51°16' E 004°22'0 0.0
2017-Nov-14 12:00N 51°16' E 004°22'0 0.0
2017-Nov-14 11:30N 51°16' E 004°22'0 0.0
2017-Nov-14 11:00N 51°16' E 004°22'0 0.0
2017-Nov-14 10:30N 51°16' E 004°22'0 0.0
2017-Nov-14 10:00N 51°16' E 004°22'0 0.0
2017-Nov-14 09:30N 51°16' E 004°22'0 0.0
2017-Nov-14 09:00N 51°16' E 004°22'1 1.4
2017-Nov-14 08:30N 51°16' E 004°21'2 4.5
2017-Nov-14 08:00N 51°18' E 004°20'3 6.4
2017-Nov-14 07:30N 51°21' E 004°18'0 0.9
2017-Nov-14 07:00N 51°21' E 004°17'0 0.0
2017-Nov-14 06:29N 51°21' E 004°17'0 0.0
2017-Nov-14 06:01N 51°21' E 004°17'1 1.1
2017-Nov-14 05:31N 51°21' E 004°16'3 5.6
2017-Nov-14 05:00N 51°18' E 004°16'1 1.5
2017-Nov-14 04:30N 51°17' E 004°16'0 0.0
2017-Nov-14 03:57N 51°17' E 004°16'0 0.0
2017-Nov-14 03:30N 51°17' E 004°16'0 0.0
2017-Nov-14 03:00N 51°17' E 004°16'0 0.0
2017-Nov-14 02:30N 51°17' E 004°16'0 0.0
2017-Nov-14 01:57N 51°17' E 004°16'0 0.0
2017-Nov-14 01:30N 51°17' E 004°16'0 0.0
2017-Nov-14 01:00N 51°17' E 004°16'0 0.0
2017-Nov-14 00:30N 51°17' E 004°16'0 0.0
2017-Nov-14 00:00N 51°17' E 004°16'0 0.0
2017-Nov-13 23:30N 51°17' E 004°16'0 0.0
2017-Nov-13 23:00N 51°17' E 004°16'0 0.0
2017-Nov-13 22:30N 51°17' E 004°16'0 0.0
2017-Nov-13 22:00N 51°17' E 004°16'75 3.8
2017-Nov-13 02:00N 51°17' E 002°16'3 5.9
2017-Nov-13 01:30N 51°16' E 002°11'4 7.9
2017-Nov-13 01:00N 51°18' E 002°06'510.1
2017-Nov-13 00:30N 51°22' E 002°01'3 6.2
2017-Nov-13 00:00N 51°25' E 002°01'4 7.3
2017-Nov-12 23:30N 51°23' E 002°06'4 7.2
2017-Nov-12 23:00N 51°21' E 002°11'3 7.0
2017-Nov-12 22:30N 51°20' E 002°17'4 7.9
2017-Nov-12 22:00N 51°21' E 002°23'2 3.6
2017-Nov-12 21:30N 51°19' E 002°22'3 6.0
2017-Nov-12 21:00N 51°18' E 002°18'3 6.4
2017-Nov-12 20:30N 51°16' E 002°14'4 8.0
2017-Nov-12 20:00N 51°14' E 002°08'4 8.3
2017-Nov-12 19:30N 51°11' E 002°03'5 9.5
2017-Nov-12 19:00N 51°09' E 001°56'510.7
2017-Nov-12 18:30N 51°07' E 001°49'510.0
2017-Nov-12 18:00N 51°03' E 001°43'510.0
2017-Nov-12 17:31N 50°60' E 001°37'5 9.2
2017-Nov-12 17:00N 50°56' E 001°32'4 8.4
2017-Nov-12 16:30N 50°53' E 001°28'4 7.7
2017-Nov-12 16:00N 50°49' E 001°27'6 7.6
2017-Nov-12 15:13N 50°43' E 001°24'2 7.8
2017-Nov-12 14:54N 50°41' E 001°23'5 8.3
2017-Nov-12 14:18N 50°38' E 001°17'3 8.5
2017-Nov-12 13:56N 50°36' E 001°13'5 8.8
2017-Nov-12 13:20N 50°32' E 001°07'3 9.5
2017-Nov-12 12:59N 50°30' E 001°03'4 9.5
2017-Nov-12 12:30N 50°28' E 000°57'5 9.7
2017-Nov-12 12:00N 50°27' E 000°49'6 9.7
2017-Nov-12 11:24N 50°25' E 000°40'4 9.6
2017-Nov-12 11:00N 50°24' E 000°35'5 9.5
2017-Nov-12 10:29N 50°23' E 000°27'4 9.4
2017-Nov-12 10:00N 50°21' E 000°20'5 9.3
2017-Nov-12 09:30N 50°20' E 000°13'5 9.4
2017-Nov-12 09:00N 50°19' E 000°06'5 9.3
2017-Nov-12 08:30N 50°17' W 000°01'5 9.5
2017-Nov-12 08:00N 50°17' W 000°08'510.9
2017-Nov-12 07:30N 50°16' W 000°17'2211.6
2017-Nov-12 05:34N 50°11' W 000°51'111.9
2017-Nov-12 05:30N 50°11' W 000°52'612.5
2017-Nov-12 05:00N 50°09' W 001°01'713.3
2017-Nov-12 04:30N 50°07' W 001°11'714.2
2017-Nov-12 04:00N 50°05' W 001°22'814.7
2017-Nov-12 03:27N 50°03' W 001°34'715.0
2017-Nov-12 03:00N 50°01' W 001°44'815.4
2017-Nov-12 02:30N 49°59' W 001°56'815.6
2017-Nov-12 01:58N 49°57' W 002°08'1315.0
2017-Nov-12 01:05N 49°53' W 002°28'214.6
2017-Nov-12 00:59N 49°53' W 002°30'714.5
2017-Nov-12 00:30N 49°51' W 002°40'714.2
2017-Nov-12 00:00N 49°49' W 002°51'713.9
2017-Nov-11 23:31N 49°46' W 003°01'713.7
2017-Nov-11 23:00N 49°43' W 003°10'11112.3
2017-Nov-11 13:56N 48°46' W 005°37'2712.5
2017-Nov-11 11:46N 48°22' W 005°56'4813.2
2017-Nov-11 08:10N 47°40' W 006°29'414.2
2017-Nov-11 07:55N 47°37' W 006°31'614.1
2017-Nov-11 07:30N 47°32' W 006°36'51214.3
2017-Nov-09 19:46N 39°20' W 009°51'312.7
2017-Nov-09 19:30N 39°16' W 009°51'612.9
2017-Nov-09 19:00N 39°10' W 009°51'712.5
2017-Nov-09 18:28N 39°03' W 009°51'612.5
2017-Nov-09 18:00N 38°57' W 009°51'612.5
2017-Nov-09 17:30N 38°51' W 009°51'612.7
2017-Nov-09 17:00N 38°45' W 009°51'612.6
2017-Nov-09 16:30N 38°39' W 009°50'612.2
2017-Nov-09 16:00N 38°33' W 009°49'612.0
2017-Nov-09 15:30N 38°27' W 009°47'612.0
2017-Nov-09 15:00N 38°21' W 009°44'712.0
2017-Nov-09 14:27N 38°15' W 009°42'  

Dump ship's entire track history